sensor_id;sensor_type;location;lat;lon;timestamp;P1;durP1;ratioP1;P2;durP2;ratioP2
66425;SDS011;53237;46.158;14.604;2023-06-14T00:01:45;3.10;;;2.83;;
66425;SDS011;53237;46.158;14.604;2023-06-14T00:04:14;3.25;;;2.80;;
66425;SDS011;53237;46.158;14.604;2023-06-14T00:06:44;3.10;;;2.90;;
66425;SDS011;53237;46.158;14.604;2023-06-14T00:09:10;2.85;;;2.65;;
66425;SDS011;53237;46.158;14.604;2023-06-14T00:11:40;3.10;;;2.90;;
66425;SDS011;53237;46.158;14.604;2023-06-14T00:14:07;2.67;;;2.47;;
66425;SDS011;53237;46.158;14.604;2023-06-14T00:16:33;4.57;;;2.80;;
66425;SDS011;53237;46.158;14.604;2023-06-14T00:19:00;3.13;;;2.83;;
66425;SDS011;53237;46.158;14.604;2023-06-14T00:21:28;2.80;;;2.60;;
66425;SDS011;53237;46.158;14.604;2023-06-14T00:23:54;3.28;;;3.00;;
66425;SDS011;53237;46.158;14.604;2023-06-14T00:26:20;3.08;;;2.80;;
66425;SDS011;53237;46.158;14.604;2023-06-14T00:28:46;3.80;;;3.35;;
66425;SDS011;53237;46.158;14.604;2023-06-14T00:31:12;3.15;;;2.92;;
66425;SDS011;53237;46.158;14.604;2023-06-14T00:33:38;3.00;;;2.70;;
66425;SDS011;53237;46.158;14.604;2023-06-14T00:36:04;2.47;;;2.28;;
66425;SDS011;53237;46.158;14.604;2023-06-14T00:38:30;2.97;;;2.72;;
66425;SDS011;53237;46.158;14.604;2023-06-14T00:40:56;2.95;;;2.72;;
66425;SDS011;53237;46.158;14.604;2023-06-14T00:43:22;3.33;;;3.05;;
66425;SDS011;53237;46.158;14.604;2023-06-14T00:45:48;2.60;;;2.40;;
66425;SDS011;53237;46.158;14.604;2023-06-14T00:48:16;3.17;;;2.88;;
66425;SDS011;53237;46.158;14.604;2023-06-14T00:50:42;2.70;;;2.50;;
66425;SDS011;53237;46.158;14.604;2023-06-14T00:53:10;3.50;;;2.72;;
66425;SDS011;53237;46.158;14.604;2023-06-14T00:55:37;4.13;;;2.55;;
66425;SDS011;53237;46.158;14.604;2023-06-14T00:58:03;2.83;;;2.63;;
66425;SDS011;53237;46.158;14.604;2023-06-14T01:00:29;2.75;;;2.55;;
66425;SDS011;53237;46.158;14.604;2023-06-14T01:02:55;3.15;;;2.95;;
66425;SDS011;53237;46.158;14.604;2023-06-14T01:05:22;2.80;;;2.60;;
66425;SDS011;53237;46.158;14.604;2023-06-14T01:12:55;3.35;;;3.05;;
66425;SDS011;53237;46.158;14.604;2023-06-14T01:15:23;3.38;;;2.90;;
66425;SDS011;53237;46.158;14.604;2023-06-14T01:17:49;3.30;;;3.00;;
66425;SDS011;53237;46.158;14.604;2023-06-14T01:20:22;2.97;;;2.78;;
66425;SDS011;53237;46.158;14.604;2023-06-14T01:22:51;2.90;;;2.70;;
66425;SDS011;53237;46.158;14.604;2023-06-14T01:25:18;3.20;;;2.95;;
66425;SDS011;53237;46.158;14.604;2023-06-14T01:27:51;3.28;;;2.97;;
66425;SDS011;53237;46.158;14.604;2023-06-14T01:30:18;3.75;;;3.45;;
66425;SDS011;53237;46.158;14.604;2023-06-14T01:32:46;3.55;;;3.25;;
66425;SDS011;53237;46.158;14.604;2023-06-14T01:35:12;3.17;;;2.88;;
66425;SDS011;53237;46.158;14.604;2023-06-14T01:37:38;3.45;;;3.15;;
66425;SDS011;53237;46.158;14.604;2023-06-14T01:40:05;2.97;;;2.78;;
66425;SDS011;53237;46.158;14.604;2023-06-14T01:42:32;3.15;;;2.88;;
66425;SDS011;53237;46.158;14.604;2023-06-14T01:44:59;3.38;;;3.08;;
66425;SDS011;53237;46.158;14.604;2023-06-14T01:47:26;3.00;;;2.80;;
66425;SDS011;53237;46.158;14.604;2023-06-14T01:49:52;3.60;;;3.30;;
66425;SDS011;53237;46.158;14.604;2023-06-14T01:52:18;3.65;;;3.13;;
66425;SDS011;53237;46.158;14.604;2023-06-14T01:54:44;3.33;;;3.03;;
66425;SDS011;53237;46.158;14.604;2023-06-14T01:57:12;3.15;;;2.95;;
66425;SDS011;53237;46.158;14.604;2023-06-14T01:59:38;3.20;;;2.90;;
66425;SDS011;53237;46.158;14.604;2023-06-14T02:02:04;2.70;;;2.50;;
66425;SDS011;53237;46.158;14.604;2023-06-14T02:04:30;3.80;;;3.38;;
66425;SDS011;53237;46.158;14.604;2023-06-14T02:06:56;2.92;;;2.70;;
66425;SDS011;53237;46.158;14.604;2023-06-14T02:09:22;3.17;;;2.88;;
66425;SDS011;53237;46.158;14.604;2023-06-14T02:11:48;3.00;;;2.80;;
66425;SDS011;53237;46.158;14.604;2023-06-14T02:14:14;3.00;;;2.80;;
66425;SDS011;53237;46.158;14.604;2023-06-14T02:16:42;3.83;;;3.08;;
66425;SDS011;53237;46.158;14.604;2023-06-14T02:19:14;3.90;;;3.00;;
66425;SDS011;53237;46.158;14.604;2023-06-14T02:21:40;3.28;;;2.95;;
66425;SDS011;53237;46.158;14.604;2023-06-14T02:24:06;2.80;;;2.50;;
66425;SDS011;53237;46.158;14.604;2023-06-14T02:26:32;2.88;;;2.67;;
66425;SDS011;53237;46.158;14.604;2023-06-14T02:28:58;2.83;;;2.58;;
66425;SDS011;53237;46.158;14.604;2023-06-14T02:31:25;2.75;;;2.55;;
66425;SDS011;53237;46.158;14.604;2023-06-14T02:33:51;3.75;;;2.60;;
66425;SDS011;53237;46.158;14.604;2023-06-14T02:36:17;2.75;;;2.55;;
66425;SDS011;53237;46.158;14.604;2023-06-14T02:38:43;2.88;;;2.67;;
66425;SDS011;53237;46.158;14.604;2023-06-14T02:41:10;2.88;;;2.67;;
66425;SDS011;53237;46.158;14.604;2023-06-14T02:43:36;3.08;;;2.80;;
66425;SDS011;53237;46.158;14.604;2023-06-14T02:46:02;2.90;;;2.70;;
66425;SDS011;53237;46.158;14.604;2023-06-14T02:48:29;2.92;;;2.72;;
66425;SDS011;53237;46.158;14.604;2023-06-14T02:50:55;3.17;;;2.92;;
66425;SDS011;53237;46.158;14.604;2023-06-14T02:53:21;2.85;;;2.65;;
66425;SDS011;53237;46.158;14.604;2023-06-14T02:55:47;3.05;;;2.85;;
66425;SDS011;53237;46.158;14.604;2023-06-14T02:58:13;3.10;;;2.90;;
66425;SDS011;53237;46.158;14.604;2023-06-14T03:00:40;8.50;;;3.50;;
66425;SDS011;53237;46.158;14.604;2023-06-14T03:03:07;2.90;;;2.70;;
66425;SDS011;53237;46.158;14.604;2023-06-14T03:05:40;2.92;;;2.72;;
66425;SDS011;53237;46.158;14.604;2023-06-14T03:08:11;3.40;;;3.10;;
66425;SDS011;53237;46.158;14.604;2023-06-14T03:10:42;3.20;;;3.00;;
66425;SDS011;53237;46.158;14.604;2023-06-14T03:13:08;2.90;;;2.70;;
66425;SDS011;53237;46.158;14.604;2023-06-14T03:15:35;3.15;;;2.90;;
66425;SDS011;53237;46.158;14.604;2023-06-14T03:18:01;3.00;;;2.80;;
66425;SDS011;53237;46.158;14.604;2023-06-14T03:20:28;2.78;;;2.58;;
66425;SDS011;53237;46.158;14.604;2023-06-14T03:22:57;2.90;;;2.70;;
66425;SDS011;53237;46.158;14.604;2023-06-14T03:25:23;2.80;;;2.60;;
66425;SDS011;53237;46.158;14.604;2023-06-14T03:27:50;2.92;;;2.65;;
66425;SDS011;53237;46.158;14.604;2023-06-14T03:30:16;3.05;;;2.85;;
66425;SDS011;53237;46.158;14.604;2023-06-14T03:32:42;3.40;;;3.20;;
66425;SDS011;53237;46.158;14.604;2023-06-14T03:35:08;2.80;;;2.60;;
66425;SDS011;53237;46.158;14.604;2023-06-14T03:37:41;3.20;;;3.00;;
66425;SDS011;53237;46.158;14.604;2023-06-14T03:40:07;3.15;;;2.95;;
66425;SDS011;53237;46.158;14.604;2023-06-14T03:42:33;3.03;;;2.83;;
66425;SDS011;53237;46.158;14.604;2023-06-14T03:44:59;3.60;;;2.95;;
66425;SDS011;53237;46.158;14.604;2023-06-14T03:47:25;3.45;;;3.13;;
66425;SDS011;53237;46.158;14.604;2023-06-14T03:49:52;3.20;;;2.90;;
66425;SDS011;53237;46.158;14.604;2023-06-14T03:52:18;3.40;;;2.65;;
66425;SDS011;53237;46.158;14.604;2023-06-14T03:54:44;4.32;;;2.97;;
66425;SDS011;53237;46.158;14.604;2023-06-14T03:57:11;3.42;;;3.03;;
66425;SDS011;53237;46.158;14.604;2023-06-14T03:59:37;4.00;;;2.80;;
66425;SDS011;53237;46.158;14.604;2023-06-14T04:02:03;3.30;;;3.10;;
66425;SDS011;53237;46.158;14.604;2023-06-14T04:04:29;2.90;;;2.70;;
66425;SDS011;53237;46.158;14.604;2023-06-14T04:06:55;3.00;;;2.80;;
66425;SDS011;53237;46.158;14.604;2023-06-14T04:09:23;4.78;;;3.10;;
66425;SDS011;53237;46.158;14.604;2023-06-14T04:11:53;2.83;;;2.60;;
66425;SDS011;53237;46.158;14.604;2023-06-14T04:14:19;3.67;;;3.28;;
66425;SDS011;53237;46.158;14.604;2023-06-14T04:16:46;3.17;;;2.97;;
66425;SDS011;53237;46.158;14.604;2023-06-14T04:19:12;3.35;;;2.92;;
66425;SDS011;53237;46.158;14.604;2023-06-14T04:21:38;3.80;;;3.05;;
66425;SDS011;53237;46.158;14.604;2023-06-14T04:24:04;3.38;;;3.08;;
66425;SDS011;53237;46.158;14.604;2023-06-14T04:26:31;2.92;;;2.72;;
66425;SDS011;53237;46.158;14.604;2023-06-14T04:28:58;3.08;;;2.80;;
66425;SDS011;53237;46.158;14.604;2023-06-14T04:31:26;3.15;;;2.85;;
66425;SDS011;53237;46.158;14.604;2023-06-14T04:33:54;2.88;;;2.67;;
66425;SDS011;53237;46.158;14.604;2023-06-14T04:36:20;3.20;;;2.88;;
66425;SDS011;53237;46.158;14.604;2023-06-14T04:38:46;3.58;;;2.97;;
66425;SDS011;53237;46.158;14.604;2023-06-14T04:41:14;3.40;;;3.10;;
66425;SDS011;53237;46.158;14.604;2023-06-14T04:43:41;3.83;;;3.53;;
66425;SDS011;53237;46.158;14.604;2023-06-14T04:46:08;3.20;;;2.90;;
66425;SDS011;53237;46.158;14.604;2023-06-14T04:48:39;3.22;;;3.03;;
66425;SDS011;53237;46.158;14.604;2023-06-14T04:51:06;3.00;;;2.70;;
66425;SDS011;53237;46.158;14.604;2023-06-14T04:53:32;3.63;;;3.33;;
66425;SDS011;53237;46.158;14.604;2023-06-14T04:55:58;2.90;;;2.70;;
66425;SDS011;53237;46.158;14.604;2023-06-14T04:58:25;3.95;;;2.83;;
66425;SDS011;53237;46.158;14.604;2023-06-14T05:00:52;3.78;;;3.20;;
66425;SDS011;53237;46.158;14.604;2023-06-14T05:03:18;3.05;;;2.85;;
66425;SDS011;53237;46.158;14.604;2023-06-14T05:05:46;4.22;;;3.20;;
66425;SDS011;53237;46.158;14.604;2023-06-14T05:08:12;3.90;;;3.35;;
66425;SDS011;53237;46.158;14.604;2023-06-14T05:10:38;3.35;;;3.05;;
66425;SDS011;53237;46.158;14.604;2023-06-14T05:13:04;4.95;;;3.38;;
66425;SDS011;53237;46.158;14.604;2023-06-14T05:15:30;5.30;;;4.80;;
66425;SDS011;53237;46.158;14.604;2023-06-14T05:17:56;4.32;;;3.92;;
66425;SDS011;53237;46.158;14.604;2023-06-14T05:20:22;5.15;;;3.85;;
66425;SDS011;53237;46.158;14.604;2023-06-14T05:22:54;4.95;;;4.45;;
66425;SDS011;53237;46.158;14.604;2023-06-14T05:25:21;4.85;;;4.35;;
66425;SDS011;53237;46.158;14.604;2023-06-14T05:27:47;4.55;;;4.25;;
66425;SDS011;53237;46.158;14.604;2023-06-14T05:30:14;5.65;;;4.93;;
66425;SDS011;53237;46.158;14.604;2023-06-14T05:32:41;5.38;;;4.88;;
66425;SDS011;53237;46.158;14.604;2023-06-14T05:35:07;5.03;;;4.53;;
66425;SDS011;53237;46.158;14.604;2023-06-14T05:37:33;5.18;;;4.65;;
66425;SDS011;53237;46.158;14.604;2023-06-14T05:39:59;5.45;;;4.85;;
66425;SDS011;53237;46.158;14.604;2023-06-14T05:42:25;5.65;;;4.22;;
66425;SDS011;53237;46.158;14.604;2023-06-14T05:44:51;4.18;;;3.58;;
66425;SDS011;53237;46.158;14.604;2023-06-14T05:47:17;5.05;;;4.65;;
66425;SDS011;53237;46.158;14.604;2023-06-14T05:49:43;4.70;;;4.00;;
66425;SDS011;53237;46.158;14.604;2023-06-14T05:52:09;3.95;;;3.65;;
66425;SDS011;53237;46.158;14.604;2023-06-14T05:54:36;3.88;;;3.55;;
66425;SDS011;53237;46.158;14.604;2023-06-14T05:57:02;5.60;;;3.22;;
66425;SDS011;53237;46.158;14.604;2023-06-14T05:59:30;4.47;;;4.07;;
66425;SDS011;53237;46.158;14.604;2023-06-14T06:01:56;6.32;;;4.70;;
66425;SDS011;53237;46.158;14.604;2023-06-14T06:04:22;6.20;;;4.82;;
66425;SDS011;53237;46.158;14.604;2023-06-14T06:06:48;5.10;;;4.68;;
66425;SDS011;53237;46.158;14.604;2023-06-14T06:09:14;4.68;;;3.83;;
66425;SDS011;53237;46.158;14.604;2023-06-14T06:11:40;6.82;;;4.50;;
66425;SDS011;53237;46.158;14.604;2023-06-14T06:14:06;8.35;;;4.88;;
66425;SDS011;53237;46.158;14.604;2023-06-14T06:16:32;8.25;;;5.18;;
66425;SDS011;53237;46.158;14.604;2023-06-14T06:18:58;4.68;;;3.97;;
66425;SDS011;53237;46.158;14.604;2023-06-14T06:21:24;5.95;;;4.60;;
66425;SDS011;53237;46.158;14.604;2023-06-14T06:23:50;5.45;;;4.30;;
66425;SDS011;53237;46.158;14.604;2023-06-14T06:26:16;5.03;;;4.53;;
66425;SDS011;53237;46.158;14.604;2023-06-14T06:28:42;5.70;;;4.15;;
66425;SDS011;53237;46.158;14.604;2023-06-14T06:31:08;4.78;;;3.65;;
66425;SDS011;53237;46.158;14.604;2023-06-14T06:33:36;4.47;;;4.07;;
66425;SDS011;53237;46.158;14.604;2023-06-14T06:36:02;3.95;;;3.65;;
66425;SDS011;53237;46.158;14.604;2023-06-14T06:38:28;4.60;;;4.20;;
66425;SDS011;53237;46.158;14.604;2023-06-14T06:40:54;4.18;;;3.72;;
66425;SDS011;53237;46.158;14.604;2023-06-14T06:43:21;3.95;;;3.63;;
66425;SDS011;53237;46.158;14.604;2023-06-14T06:45:47;5.63;;;3.42;;
66425;SDS011;53237;46.158;14.604;2023-06-14T06:48:13;4.45;;;4.00;;
66425;SDS011;53237;46.158;14.604;2023-06-14T06:50:40;6.25;;;4.55;;
66425;SDS011;53237;46.158;14.604;2023-06-14T06:53:06;4.07;;;3.78;;
66425;SDS011;53237;46.158;14.604;2023-06-14T06:55:32;4.30;;;3.90;;
66425;SDS011;53237;46.158;14.604;2023-06-14T06:57:58;5.28;;;3.50;;
66425;SDS011;53237;46.158;14.604;2023-06-14T07:00:25;4.20;;;3.70;;
66425;SDS011;53237;46.158;14.604;2023-06-14T07:02:51;6.40;;;4.03;;
66425;SDS011;53237;46.158;14.604;2023-06-14T07:05:19;4.15;;;3.75;;
66425;SDS011;53237;46.158;14.604;2023-06-14T07:07:45;3.83;;;3.53;;
66425;SDS011;53237;46.158;14.604;2023-06-14T07:10:12;4.70;;;4.30;;
66425;SDS011;53237;46.158;14.604;2023-06-14T07:12:38;4.05;;;3.75;;
66425;SDS011;53237;46.158;14.604;2023-06-14T07:15:05;3.97;;;3.65;;
66425;SDS011;53237;46.158;14.604;2023-06-14T07:17:31;3.85;;;3.55;;
66425;SDS011;53237;46.158;14.604;2023-06-14T07:19:58;3.65;;;3.25;;
66425;SDS011;53237;46.158;14.604;2023-06-14T07:22:25;4.50;;;3.22;;
66425;SDS011;53237;46.158;14.604;2023-06-14T07:24:51;3.25;;;2.80;;
66425;SDS011;53237;46.158;14.604;2023-06-14T07:27:17;2.92;;;2.70;;
66425;SDS011;53237;46.158;14.604;2023-06-14T07:29:43;3.20;;;3.00;;
66425;SDS011;53237;46.158;14.604;2023-06-14T07:32:09;3.60;;;3.00;;
66425;SDS011;53237;46.158;14.604;2023-06-14T07:34:35;3.58;;;3.08;;
66425;SDS011;53237;46.158;14.604;2023-06-14T07:37:01;3.28;;;2.92;;
66425;SDS011;53237;46.158;14.604;2023-06-14T07:39:27;3.17;;;2.88;;
66425;SDS011;53237;46.158;14.604;2023-06-14T07:41:53;3.45;;;3.15;;
66425;SDS011;53237;46.158;14.604;2023-06-14T07:44:19;3.35;;;3.05;;
66425;SDS011;53237;46.158;14.604;2023-06-14T07:46:45;2.92;;;2.72;;
66425;SDS011;53237;46.158;14.604;2023-06-14T07:49:14;3.00;;;2.80;;
66425;SDS011;53237;46.158;14.604;2023-06-14T07:51:40;2.65;;;2.45;;
66425;SDS011;53237;46.158;14.604;2023-06-14T07:54:06;3.38;;;3.08;;
66425;SDS011;53237;46.158;14.604;2023-06-14T07:56:33;3.33;;;3.03;;
66425;SDS011;53237;46.158;14.604;2023-06-14T07:59:00;2.83;;;2.63;;
66425;SDS011;53237;46.158;14.604;2023-06-14T08:01:26;3.38;;;2.85;;
66425;SDS011;53237;46.158;14.604;2023-06-14T08:03:53;3.35;;;2.75;;
66425;SDS011;53237;46.158;14.604;2023-06-14T08:06:19;3.10;;;2.90;;
66425;SDS011;53237;46.158;14.604;2023-06-14T08:08:45;3.55;;;3.25;;
66425;SDS011;53237;46.158;14.604;2023-06-14T08:11:11;3.78;;;3.05;;
66425;SDS011;53237;46.158;14.604;2023-06-14T08:13:37;3.30;;;2.78;;
66425;SDS011;53237;46.158;14.604;2023-06-14T08:16:03;3.15;;;2.95;;
66425;SDS011;53237;46.158;14.604;2023-06-14T08:18:30;4.30;;;3.08;;
66425;SDS011;53237;46.158;14.604;2023-06-14T08:20:56;2.97;;;2.70;;
66425;SDS011;53237;46.158;14.604;2023-06-14T08:23:22;3.13;;;2.83;;
66425;SDS011;53237;46.158;14.604;2023-06-14T08:25:48;3.35;;;2.95;;
66425;SDS011;53237;46.158;14.604;2023-06-14T08:28:14;3.10;;;2.90;;
66425;SDS011;53237;46.158;14.604;2023-06-14T08:30:41;3.30;;;2.80;;
66425;SDS011;53237;46.158;14.604;2023-06-14T08:33:07;4.55;;;3.00;;
66425;SDS011;53237;46.158;14.604;2023-06-14T08:35:33;2.70;;;2.50;;
66425;SDS011;53237;46.158;14.604;2023-06-14T08:38:02;2.75;;;2.55;;
66425;SDS011;53237;46.158;14.604;2023-06-14T08:40:29;3.95;;;2.83;;
66425;SDS011;53237;46.158;14.604;2023-06-14T08:42:56;3.20;;;2.90;;
66425;SDS011;53237;46.158;14.604;2023-06-14T08:45:22;3.33;;;3.03;;
66425;SDS011;53237;46.158;14.604;2023-06-14T08:47:49;3.28;;;2.70;;
66425;SDS011;53237;46.158;14.604;2023-06-14T08:50:20;3.15;;;2.78;;
66425;SDS011;53237;46.158;14.604;2023-06-14T08:52:57;3.53;;;2.63;;
66425;SDS011;53237;46.158;14.604;2023-06-14T08:55:27;2.55;;;2.35;;
66425;SDS011;53237;46.158;14.604;2023-06-14T08:57:54;2.92;;;2.70;;
66425;SDS011;53237;46.158;14.604;2023-06-14T09:00:22;2.55;;;2.35;;
66425;SDS011;53237;46.158;14.604;2023-06-14T09:02:49;3.47;;;2.80;;
66425;SDS011;53237;46.158;14.604;2023-06-14T09:05:20;4.43;;;2.60;;
66425;SDS011;53237;46.158;14.604;2023-06-14T09:07:46;3.22;;;2.92;;
66425;SDS011;53237;46.158;14.604;2023-06-14T09:10:14;3.35;;;2.85;;
66425;SDS011;53237;46.158;14.604;2023-06-14T09:12:41;2.72;;;2.53;;
66425;SDS011;53237;46.158;14.604;2023-06-14T09:15:07;3.17;;;2.40;;
66425;SDS011;53237;46.158;14.604;2023-06-14T09:17:37;2.75;;;2.55;;
66425;SDS011;53237;46.158;14.604;2023-06-14T09:20:04;3.10;;;2.80;;
66425;SDS011;53237;46.158;14.604;2023-06-14T09:22:35;2.63;;;2.42;;
66425;SDS011;53237;46.158;14.604;2023-06-14T09:25:01;2.60;;;2.35;;
66425;SDS011;53237;46.158;14.604;2023-06-14T09:27:27;2.60;;;2.40;;
66425;SDS011;53237;46.158;14.604;2023-06-14T09:29:54;2.88;;;2.67;;
66425;SDS011;53237;46.158;14.604;2023-06-14T09:32:22;2.78;;;2.58;;
66425;SDS011;53237;46.158;14.604;2023-06-14T09:34:48;3.17;;;2.88;;
66425;SDS011;53237;46.158;14.604;2023-06-14T09:37:30;2.72;;;2.53;;
66425;SDS011;53237;46.158;14.604;2023-06-14T09:39:57;2.67;;;2.47;;
66425;SDS011;53237;46.158;14.604;2023-06-14T09:42:23;3.03;;;2.83;;
66425;SDS011;53237;46.158;14.604;2023-06-14T09:44:53;2.75;;;2.55;;
66425;SDS011;53237;46.158;14.604;2023-06-14T09:47:19;2.70;;;2.50;;
66425;SDS011;53237;46.158;14.604;2023-06-14T09:49:46;3.22;;;2.80;;
66425;SDS011;53237;46.158;14.604;2023-06-14T09:52:16;3.15;;;2.60;;
66425;SDS011;53237;46.158;14.604;2023-06-14T09:54:42;2.63;;;2.40;;
66425;SDS011;53237;46.158;14.604;2023-06-14T09:57:10;3.00;;;2.78;;
66425;SDS011;53237;46.158;14.604;2023-06-14T09:59:36;2.85;;;2.65;;
66425;SDS011;53237;46.158;14.604;2023-06-14T10:02:07;3.55;;;2.33;;
66425;SDS011;53237;46.158;14.604;2023-06-14T10:04:35;2.85;;;2.65;;
66425;SDS011;53237;46.158;14.604;2023-06-14T10:07:01;2.70;;;2.50;;
66425;SDS011;53237;46.158;14.604;2023-06-14T10:09:27;2.67;;;2.47;;
66425;SDS011;53237;46.158;14.604;2023-06-14T10:11:54;2.60;;;2.40;;
66425;SDS011;53237;46.158;14.604;2023-06-14T10:14:20;2.60;;;2.40;;
66425;SDS011;53237;46.158;14.604;2023-06-14T10:16:56;4.10;;;2.90;;
66425;SDS011;53237;46.158;14.604;2023-06-14T10:19:29;2.83;;;2.63;;
66425;SDS011;53237;46.158;14.604;2023-06-14T10:22:01;2.63;;;2.42;;
66425;SDS011;53237;46.158;14.604;2023-06-14T10:24:46;2.75;;;2.55;;
66425;SDS011;53237;46.158;14.604;2023-06-14T10:27:13;2.50;;;2.30;;
66425;SDS011;53237;46.158;14.604;2023-06-14T10:30:25;2.85;;;2.65;;
66425;SDS011;53237;46.158;14.604;2023-06-14T10:32:31;3.03;;;2.72;;
66425;SDS011;53237;46.158;14.604;2023-06-14T10:34:58;3.10;;;2.72;;
66425;SDS011;53237;46.158;14.604;2023-06-14T10:37:25;3.20;;;2.72;;
66425;SDS011;53237;46.158;14.604;2023-06-14T10:39:51;3.22;;;2.60;;
66425;SDS011;53237;46.158;14.604;2023-06-14T10:42:18;3.00;;;2.67;;
66425;SDS011;53237;46.158;14.604;2023-06-14T10:44:54;3.00;;;2.78;;
66425;SDS011;53237;46.158;14.604;2023-06-14T10:47:33;3.38;;;2.70;;
66425;SDS011;53237;46.158;14.604;2023-06-14T10:52:33;2.67;;;2.47;;
66425;SDS011;53237;46.158;14.604;2023-06-14T10:57:29;2.33;;;2.22;;
66425;SDS011;53237;46.158;14.604;2023-06-14T10:59:59;2.55;;;2.35;;
66425;SDS011;53237;46.158;14.604;2023-06-14T11:02:41;2.97;;;2.50;;
66425;SDS011;53237;46.158;14.604;2023-06-14T11:05:10;2.60;;;2.40;;
66425;SDS011;53237;46.158;14.604;2023-06-14T11:07:48;2.75;;;2.55;;
66425;SDS011;53237;46.158;14.604;2023-06-14T11:12:50;2.67;;;2.40;;
66425;SDS011;53237;46.158;14.604;2023-06-14T11:15:17;2.90;;;2.70;;
66425;SDS011;53237;46.158;14.604;2023-06-14T11:17:53;2.58;;;2.38;;
66425;SDS011;53237;46.158;14.604;2023-06-14T11:20:20;2.85;;;2.65;;
66425;SDS011;53237;46.158;14.604;2023-06-14T11:22:46;3.63;;;2.90;;
66425;SDS011;53237;46.158;14.604;2023-06-14T11:25:12;2.90;;;2.50;;
66425;SDS011;53237;46.158;14.604;2023-06-14T11:27:38;2.72;;;2.53;;
66425;SDS011;53237;46.158;14.604;2023-06-14T11:30:06;3.33;;;2.80;;
66425;SDS011;53237;46.158;14.604;2023-06-14T11:32:33;2.70;;;2.50;;
66425;SDS011;53237;46.158;14.604;2023-06-14T11:34:59;2.92;;;2.72;;
66425;SDS011;53237;46.158;14.604;2023-06-14T11:37:25;3.47;;;2.70;;
66425;SDS011;53237;46.158;14.604;2023-06-14T11:39:56;3.10;;;2.75;;
66425;SDS011;53237;46.158;14.604;2023-06-14T11:42:22;2.88;;;2.67;;
66425;SDS011;53237;46.158;14.604;2023-06-14T11:44:49;3.08;;;2.78;;
66425;SDS011;53237;46.158;14.604;2023-06-14T11:47:15;2.95;;;2.65;;
66425;SDS011;53237;46.158;14.604;2023-06-14T11:49:41;2.50;;;2.30;;
66425;SDS011;53237;46.158;14.604;2023-06-14T11:52:08;2.60;;;2.40;;
66425;SDS011;53237;46.158;14.604;2023-06-14T11:54:34;4.68;;;3.03;;
66425;SDS011;53237;46.158;14.604;2023-06-14T11:57:00;3.83;;;2.92;;
66425;SDS011;53237;46.158;14.604;2023-06-14T11:59:27;2.75;;;2.55;;
66425;SDS011;53237;46.158;14.604;2023-06-14T12:01:53;2.80;;;2.60;;
66425;SDS011;53237;46.158;14.604;2023-06-14T12:04:29;3.33;;;2.88;;
66425;SDS011;53237;46.158;14.604;2023-06-14T12:06:55;4.63;;;2.92;;
66425;SDS011;53237;46.158;14.604;2023-06-14T12:09:22;2.80;;;2.60;;
66425;SDS011;53237;46.158;14.604;2023-06-14T12:11:51;2.53;;;2.33;;
66425;SDS011;53237;46.158;14.604;2023-06-14T12:14:30;2.70;;;2.50;;
66425;SDS011;53237;46.158;14.604;2023-06-14T12:17:05;2.75;;;2.55;;
66425;SDS011;53237;46.158;14.604;2023-06-14T12:19:32;3.22;;;2.88;;
66425;SDS011;53237;46.158;14.604;2023-06-14T12:22:01;2.83;;;2.60;;
66425;SDS011;53237;46.158;14.604;2023-06-14T12:24:29;3.92;;;3.30;;
66425;SDS011;53237;46.158;14.604;2023-06-14T12:26:59;3.00;;;2.80;;
66425;SDS011;53237;46.158;14.604;2023-06-14T12:29:25;3.03;;;2.65;;
66425;SDS011;53237;46.158;14.604;2023-06-14T12:31:51;3.63;;;2.92;;
66425;SDS011;53237;46.158;14.604;2023-06-14T12:34:19;3.05;;;2.75;;
66425;SDS011;53237;46.158;14.604;2023-06-14T12:36:45;2.58;;;2.38;;
66425;SDS011;53237;46.158;14.604;2023-06-14T12:39:11;3.58;;;2.92;;
66425;SDS011;53237;46.158;14.604;2023-06-14T12:41:38;3.00;;;2.78;;
66425;SDS011;53237;46.158;14.604;2023-06-14T12:44:06;2.72;;;2.53;;
66425;SDS011;53237;46.158;14.604;2023-06-14T12:46:32;3.35;;;3.05;;
66425;SDS011;53237;46.158;14.604;2023-06-14T12:48:58;3.88;;;2.80;;
66425;SDS011;53237;46.158;14.604;2023-06-14T12:51:24;3.28;;;2.97;;
66425;SDS011;53237;46.158;14.604;2023-06-14T12:53:50;3.00;;;2.80;;
66425;SDS011;53237;46.158;14.604;2023-06-14T12:56:17;2.92;;;2.72;;
66425;SDS011;53237;46.158;14.604;2023-06-14T12:58:43;2.75;;;2.55;;
66425;SDS011;53237;46.158;14.604;2023-06-14T13:01:09;2.90;;;2.60;;
66425;SDS011;53237;46.158;14.604;2023-06-14T13:03:35;2.78;;;2.58;;
66425;SDS011;53237;46.158;14.604;2023-06-14T13:06:01;2.80;;;2.60;;
66425;SDS011;53237;46.158;14.604;2023-06-14T13:08:28;3.08;;;2.83;;
66425;SDS011;53237;46.158;14.604;2023-06-14T13:10:55;4.72;;;2.95;;
66425;SDS011;53237;46.158;14.604;2023-06-14T13:13:21;2.90;;;2.70;;
66425;SDS011;53237;46.158;14.604;2023-06-14T13:15:47;3.08;;;2.72;;
66425;SDS011;53237;46.158;14.604;2023-06-14T13:18:14;3.10;;;2.90;;
66425;SDS011;53237;46.158;14.604;2023-06-14T13:20:40;3.10;;;2.80;;
66425;SDS011;53237;46.158;14.604;2023-06-14T13:23:07;3.20;;;2.70;;
66425;SDS011;53237;46.158;14.604;2023-06-14T13:25:34;2.83;;;2.63;;
66425;SDS011;53237;46.158;14.604;2023-06-14T13:28:00;2.83;;;2.63;;
66425;SDS011;53237;46.158;14.604;2023-06-14T13:30:26;2.78;;;2.58;;
66425;SDS011;53237;46.158;14.604;2023-06-14T13:32:52;4.28;;;2.85;;
66425;SDS011;53237;46.158;14.604;2023-06-14T13:35:19;3.60;;;3.30;;
66425;SDS011;53237;46.158;14.604;2023-06-14T13:37:45;3.40;;;2.95;;
66425;SDS011;53237;46.158;14.604;2023-06-14T13:40:11;3.10;;;2.90;;
66425;SDS011;53237;46.158;14.604;2023-06-14T13:42:37;2.95;;;2.50;;
66425;SDS011;53237;46.158;14.604;2023-06-14T13:45:04;3.15;;;2.72;;
66425;SDS011;53237;46.158;14.604;2023-06-14T13:47:30;3.97;;;2.80;;
66425;SDS011;53237;46.158;14.604;2023-06-14T13:49:56;2.75;;;2.35;;
66425;SDS011;53237;46.158;14.604;2023-06-14T13:52:23;2.67;;;2.47;;
66425;SDS011;53237;46.158;14.604;2023-06-14T13:54:49;3.13;;;2.92;;
66425;SDS011;53237;46.158;14.604;2023-06-14T13:57:18;2.90;;;2.70;;
66425;SDS011;53237;46.158;14.604;2023-06-14T13:59:44;2.83;;;2.63;;
66425;SDS011;53237;46.158;14.604;2023-06-14T14:02:10;3.10;;;2.80;;
66425;SDS011;53237;46.158;14.604;2023-06-14T14:04:37;2.80;;;2.60;;
66425;SDS011;53237;46.158;14.604;2023-06-14T14:07:03;2.72;;;2.53;;
66425;SDS011;53237;46.158;14.604;2023-06-14T14:09:29;3.00;;;2.80;;
66425;SDS011;53237;46.158;14.604;2023-06-14T14:11:55;2.70;;;2.50;;
66425;SDS011;53237;46.158;14.604;2023-06-14T14:14:21;2.80;;;2.60;;
66425;SDS011;53237;46.158;14.604;2023-06-14T14:16:48;3.10;;;2.80;;
66425;SDS011;53237;46.158;14.604;2023-06-14T14:19:16;2.72;;;2.53;;
66425;SDS011;53237;46.158;14.604;2023-06-14T14:21:43;2.80;;;2.60;;
66425;SDS011;53237;46.158;14.604;2023-06-14T14:24:09;3.53;;;2.90;;
66425;SDS011;53237;46.158;14.604;2023-06-14T14:26:35;2.70;;;2.50;;
66425;SDS011;53237;46.158;14.604;2023-06-14T14:29:01;3.17;;;2.78;;
66425;SDS011;53237;46.158;14.604;2023-06-14T14:31:28;3.28;;;2.97;;
66425;SDS011;53237;46.158;14.604;2023-06-14T14:33:54;2.60;;;2.38;;
66425;SDS011;53237;46.158;14.604;2023-06-14T14:36:20;2.70;;;2.50;;
66425;SDS011;53237;46.158;14.604;2023-06-14T14:38:45;3.95;;;2.65;;
66425;SDS011;53237;46.158;14.604;2023-06-14T14:41:12;3.15;;;2.85;;
66425;SDS011;53237;46.158;14.604;2023-06-14T14:43:39;3.22;;;2.30;;
66425;SDS011;53237;46.158;14.604;2023-06-14T14:46:05;2.78;;;2.55;;